Archival Weather

Heathrow

London, United Kingdom (EGLL)

Report from: Tuesday, June 18, 2024 9:50 AM BST
Current time: Monday, July 22, 2024 12:55 PM BST

Current weather – Weather history – Daily summaries
Weather forecast

Temperature17.0°C (62.6°F)
Dew point10.0°C (50.0°F)
Winds 6 kts (3.1 m/s, 6.9 mph) Vrb
Winds variableWinds variable from North-Northwest (330°) to East (90°)
Visibility6.2 mi. (10 km)
Clouds Sky clear
Altimeter29.94 in.Hg (1014 mB)
Relative humidity63 %
Density altitude385 ft. (117 m)
Remarks Fully automated report
No clouds detected
Flight conditions Visual Meteorological Conditions
Raw dataEGLL 180850Z AUTO 03006KT 330V090 9999 NCD 17/10 Q1014
An error has occurred. This application may no longer respond until reloaded. Reload 🗙